sensor_id;sensor_type;location;lat;lon;timestamp;pressure;altitude;pressure_sealevel;temperature;humidity
2036;BME280;23642;42.658;23.350;2023-07-31T00:00:29;53378.75;;;-146.31;79.96
2036;BME280;23642;42.658;23.350;2023-07-31T00:02:57;53372.53;;;-146.31;80.09
2036;BME280;23642;42.658;23.350;2023-07-31T00:05:24;53405.56;;;-146.31;80.13
2036;BME280;23642;42.658;23.350;2023-07-31T00:07:51;53366.34;;;-146.31;80.68
2036;BME280;23642;42.658;23.350;2023-07-31T00:10:19;53370.47;;;-146.31;80.83
2036;BME280;23642;42.658;23.350;2023-07-31T00:12:47;53351.91;;;-146.31;81.00
2036;BME280;23642;42.658;23.350;2023-07-31T00:15:14;53341.59;;;-146.31;80.98
2036;BME280;23642;42.658;23.350;2023-07-31T00:17:41;53335.38;;;-146.31;81.20
2036;BME280;23642;42.658;23.350;2023-07-31T00:20:09;53329.19;;;-146.31;81.37
2036;BME280;23642;42.658;23.350;2023-07-31T00:22:36;53325.06;;;-146.31;81.41
2036;BME280;23642;42.658;23.350;2023-07-31T00:25:04;53337.47;;;-146.31;80.98
2036;BME280;23642;42.658;23.350;2023-07-31T00:27:31;53323.00;;;-146.31;81.34
2036;BME280;23642;42.658;23.350;2023-07-31T00:29:59;53289.97;;;-146.31;82.09
2036;BME280;23642;42.658;23.350;2023-07-31T00:32:26;53215.66;;;-146.31;83.72
2036;BME280;23642;42.658;23.350;2023-07-31T00:34:53;53081.50;;;-146.31;85.25
2036;BME280;23642;42.658;23.350;2023-07-31T00:37:20;52984.50;;;-146.31;86.80
2036;BME280;23642;42.658;23.350;2023-07-31T00:39:49;52821.44;;;-146.31;88.19
2036;BME280;23642;42.658;23.350;2023-07-31T00:42:16;52689.38;;;-146.31;89.29
2036;BME280;23642;42.658;23.350;2023-07-31T00:44:43;52565.53;;;-146.31;89.71
2036;BME280;23642;42.658;23.350;2023-07-31T00:47:12;52472.69;;;-146.31;90.15
2036;BME280;23642;42.658;23.350;2023-07-31T00:49:39;52406.66;;;-146.31;90.22
2036;BME280;23642;42.658;23.350;2023-07-31T00:52:06;52359.19;;;-146.31;90.23
2036;BME280;23642;42.658;23.350;2023-07-31T00:54:34;52282.84;;;-146.31;90.54
2036;BME280;23642;42.658;23.350;2023-07-31T00:57:02;52239.50;;;-146.31;90.70
2036;BME280;23642;42.658;23.350;2023-07-31T00:59:31;52148.72;;;-146.31;90.70
2036;BME280;23642;42.658;23.350;2023-07-31T01:01:58;52111.56;;;-146.31;91.35
2036;BME280;23642;42.658;23.350;2023-07-31T01:04:32;52012.53;;;-146.31;91.85
2036;BME280;23642;42.658;23.350;2023-07-31T01:07:02;51983.63;;;-146.31;91.58
2036;BME280;23642;42.658;23.350;2023-07-31T01:09:37;51909.34;;;-146.31;92.00
2036;BME280;23642;42.658;23.350;2023-07-31T01:12:07;51855.72;;;-146.31;92.03
2036;BME280;23642;42.658;23.350;2023-07-31T01:14:36;51793.81;;;-146.31;92.50
2036;BME280;23642;42.658;23.350;2023-07-31T01:17:03;51690.66;;;-146.31;93.01
2036;BME280;23642;42.658;23.350;2023-07-31T01:19:31;51632.88;;;-146.31;93.18
2036;BME280;23642;42.658;23.350;2023-07-31T01:22:20;51509.09;;;-146.31;93.67
2036;BME280;23642;42.658;23.350;2023-07-31T01:24:56;51430.72;;;-146.31;93.92
2036;BME280;23642;42.658;23.350;2023-07-31T01:27:30;51360.56;;;-146.31;94.14
2036;BME280;23642;42.658;23.350;2023-07-31T01:30:01;51276.00;;;-146.31;94.46
2036;BME280;23642;42.658;23.350;2023-07-31T01:32:36;51245.03;;;-146.31;94.34
2036;BME280;23642;42.658;23.350;2023-07-31T01:35:06;51146.03;;;-146.31;94.78
2036;BME280;23642;42.658;23.350;2023-07-31T01:37:34;51042.88;;;-146.31;95.46
2036;BME280;23642;42.658;23.350;2023-07-31T01:40:03;50950.06;;;-146.31;95.46
2036;BME280;23642;42.658;23.350;2023-07-31T01:42:31;50873.75;;;-146.31;95.77
2036;BME280;23642;42.658;23.350;2023-07-31T01:44:58;50793.31;;;-146.31;96.01
2036;BME280;23642;42.658;23.350;2023-07-31T01:47:25;50688.13;;;-146.31;96.41
2036;BME280;23642;42.658;23.350;2023-07-31T01:49:52;50644.81;;;-146.31;96.51
2036;BME280;23642;42.658;23.350;2023-07-31T01:52:18;50556.13;;;-146.31;96.79
2036;BME280;23642;42.658;23.350;2023-07-31T01:54:45;50465.38;;;-146.31;97.23
2036;BME280;23642;42.658;23.350;2023-07-31T01:57:12;50378.75;;;-146.31;97.33
2036;BME280;23642;42.658;23.350;2023-07-31T01:59:41;50341.63;;;-146.31;97.56
2036;BME280;23642;42.658;23.350;2023-07-31T02:02:08;50271.50;;;-146.31;97.73
2036;BME280;23642;42.658;23.350;2023-07-31T02:04:35;50176.63;;;-146.31;98.08
2036;BME280;23642;42.658;23.350;2023-07-31T02:07:04;50127.16;;;-146.31;97.95
2036;BME280;23642;42.658;23.350;2023-07-31T02:09:31;50061.16;;;-146.31;98.30
2036;BME280;23642;42.658;23.350;2023-07-31T02:11:58;50073.53;;;-146.31;98.29
2036;BME280;23642;42.658;23.350;2023-07-31T02:14:25;50044.66;;;-146.31;98.24
2036;BME280;23642;42.658;23.350;2023-07-31T02:16:53;50001.34;;;-146.31;98.52
2036;BME280;23642;42.658;23.350;2023-07-31T02:19:20;49970.44;;;-146.31;98.49
2036;BME280;23642;42.658;23.350;2023-07-31T02:21:47;49914.75;;;-146.31;98.79
2036;BME280;23642;42.658;23.350;2023-07-31T02:24:15;49859.06;;;-146.31;98.71
2036;BME280;23642;42.658;23.350;2023-07-31T02:26:42;49850.81;;;-146.31;98.72
2036;BME280;23642;42.658;23.350;2023-07-31T02:29:09;49854.94;;;-146.31;98.56
2036;BME280;23642;42.658;23.350;2023-07-31T02:31:36;49840.50;;;-146.31;98.64
2036;BME280;23642;42.658;23.350;2023-07-31T02:34:04;49869.38;;;-146.31;98.35
2036;BME280;23642;42.658;23.350;2023-07-31T02:36:31;49863.19;;;-146.31;98.42
2036;BME280;23642;42.658;23.350;2023-07-31T02:38:58;49877.63;;;-146.31;98.46
2036;BME280;23642;42.658;23.350;2023-07-31T02:41:24;49859.06;;;-146.31;98.16
2036;BME280;23642;42.658;23.350;2023-07-31T02:43:54;49859.06;;;-146.31;98.23
2036;BME280;23642;42.658;23.350;2023-07-31T02:46:21;49953.94;;;-146.31;97.39
2036;BME280;23642;42.658;23.350;2023-07-31T02:48:50;49980.72;;;-146.31;97.01
2036;BME280;23642;42.658;23.350;2023-07-31T02:51:21;50034.34;;;-146.31;96.81
2036;BME280;23642;42.658;23.350;2023-07-31T02:53:48;50094.16;;;-146.31;96.30
2036;BME280;23642;42.658;23.350;2023-07-31T02:56:18;50153.97;;;-146.31;95.74
2036;BME280;23642;42.658;23.350;2023-07-31T02:58:45;50201.38;;;-146.31;95.38
2036;BME280;23642;42.658;23.350;2023-07-31T03:01:12;50263.25;;;-146.31;95.05
2036;BME280;23642;42.658;23.350;2023-07-31T03:03:40;50316.88;;;-146.31;94.74
2036;BME280;23642;42.658;23.350;2023-07-31T03:06:07;50337.50;;;-146.31;94.52
2036;BME280;23642;42.658;23.350;2023-07-31T03:08:36;50395.25;;;-146.31;94.09
2036;BME280;23642;42.658;23.350;2023-07-31T03:11:02;50424.13;;;-146.31;93.92
2036;BME280;23642;42.658;23.350;2023-07-31T03:13:29;50413.81;;;-146.31;93.92
2036;BME280;23642;42.658;23.350;2023-07-31T03:15:56;50446.81;;;-146.31;93.76
2036;BME280;23642;42.658;23.350;2023-07-31T03:18:23;50430.31;;;-146.31;94.19
2036;BME280;23642;42.658;23.350;2023-07-31T03:20:50;50438.56;;;-146.31;93.66
2036;BME280;23642;42.658;23.350;2023-07-31T03:23:16;50420.00;;;-146.31;93.92
2036;BME280;23642;42.658;23.350;2023-07-31T03:25:56;50391.13;;;-146.31;94.19
2036;BME280;23642;42.658;23.350;2023-07-31T03:28:23;50389.06;;;-146.31;94.41
2036;BME280;23642;42.658;23.350;2023-07-31T03:30:51;50329.25;;;-146.31;94.76
2036;BME280;23642;42.658;23.350;2023-07-31T03:33:18;50321.00;;;-146.31;94.71
2036;BME280;23642;42.658;23.350;2023-07-31T03:35:45;50354.00;;;-146.31;94.32
2036;BME280;23642;42.658;23.350;2023-07-31T03:38:12;50370.50;;;-146.31;94.26
2036;BME280;23642;42.658;23.350;2023-07-31T03:40:39;50382.88;;;-146.31;94.27
2036;BME280;23642;42.658;23.350;2023-07-31T03:43:08;50432.38;;;-146.31;93.54
2036;BME280;23642;42.658;23.350;2023-07-31T03:45:35;50469.50;;;-146.31;93.24
2036;BME280;23642;42.658;23.350;2023-07-31T03:48:03;50502.50;;;-146.31;93.05
2036;BME280;23642;42.658;23.350;2023-07-31T03:50:30;50523.13;;;-146.31;93.15
2036;BME280;23642;42.658;23.350;2023-07-31T03:52:57;50572.63;;;-146.31;92.89
2036;BME280;23642;42.658;23.350;2023-07-31T03:55:24;50589.13;;;-146.31;92.61
2036;BME280;23642;42.658;23.350;2023-07-31T03:57:51;50618.00;;;-146.31;92.67
2036;BME280;23642;42.658;23.350;2023-07-31T04:00:19;50646.88;;;-146.31;92.42
2036;BME280;23642;42.658;23.350;2023-07-31T04:02:47;50622.13;;;-146.31;92.64
2036;BME280;23642;42.658;23.350;2023-07-31T04:05:14;50605.59;;;-146.31;93.15
2036;BME280;23642;42.658;23.350;2023-07-31T04:07:41;50585.00;;;-146.31;93.04
2036;BME280;23642;42.658;23.350;2023-07-31T04:10:08;50576.75;;;-146.31;93.27
2036;BME280;23642;42.658;23.350;2023-07-31T04:12:36;50568.50;;;-146.31;93.21
2036;BME280;23642;42.658;23.350;2023-07-31T04:15:03;50585.00;;;-146.31;93.06
2036;BME280;23642;42.658;23.350;2023-07-31T04:17:31;50589.13;;;-146.31;92.74
2036;BME280;23642;42.658;23.350;2023-07-31T04:20:01;50630.38;;;-146.31;92.64
2036;BME280;23642;42.658;23.350;2023-07-31T04:22:28;50671.63;;;-146.31;91.94
2036;BME280;23642;42.658;23.350;2023-07-31T04:24:55;50719.06;;;-146.31;91.62
2036;BME280;23642;42.658;23.350;2023-07-31T04:27:22;50712.88;;;-146.31;91.74
2036;BME280;23642;42.658;23.350;2023-07-31T04:29:49;50770.63;;;-146.31;91.02
2036;BME280;23642;42.658;23.350;2023-07-31T04:32:16;50811.88;;;-146.31;90.76
2036;BME280;23642;42.658;23.350;2023-07-31T04:34:45;50849.00;;;-146.31;90.57
2036;BME280;23642;42.658;23.350;2023-07-31T04:37:12;50910.88;;;-146.31;89.93
2036;BME280;23642;42.658;23.350;2023-07-31T04:39:39;50991.31;;;-146.31;89.58
2036;BME280;23642;42.658;23.350;2023-07-31T04:42:06;51024.31;;;-146.31;88.46
2036;BME280;23642;42.658;23.350;2023-07-31T04:44:33;51069.69;;;-146.31;88.44
2036;BME280;23642;42.658;23.350;2023-07-31T04:47:00;51115.09;;;-146.31;88.26
2036;BME280;23642;42.658;23.350;2023-07-31T04:49:27;51123.34;;;-146.31;88.52
2036;BME280;23642;42.658;23.350;2023-07-31T04:51:56;51121.28;;;-146.31;89.31
2036;BME280;23642;42.658;23.350;2023-07-31T04:54:23;51117.16;;;-146.31;88.53
2036;BME280;23642;42.658;23.350;2023-07-31T04:56:50;51205.84;;;-146.31;87.92
2036;BME280;23642;42.658;23.350;2023-07-31T04:59:17;51249.16;;;-146.31;87.76
2036;BME280;23642;42.658;23.350;2023-07-31T05:01:45;51245.03;;;-146.31;87.01
2036;BME280;23642;42.658;23.350;2023-07-31T05:04:13;51364.69;;;-146.31;85.92
2036;BME280;23642;42.658;23.350;2023-07-31T05:06:40;51393.56;;;-146.31;85.62
2036;BME280;23642;42.658;23.350;2023-07-31T05:09:08;51397.69;;;-146.31;84.32
2036;BME280;23642;42.658;23.350;2023-07-31T05:11:36;51492.59;;;-146.31;84.86
2036;BME280;23642;42.658;23.350;2023-07-31T05:14:03;51500.84;;;-146.31;85.30
2036;BME280;23642;42.658;23.350;2023-07-31T05:16:30;51484.34;;;-146.31;85.57
2036;BME280;23642;42.658;23.350;2023-07-31T05:18:56;51502.91;;;-146.31;86.32
2036;BME280;23642;42.658;23.350;2023-07-31T05:21:23;51463.72;;;-146.31;85.36
2036;BME280;23642;42.658;23.350;2023-07-31T05:23:50;51529.72;;;-146.31;84.38
2036;BME280;23642;42.658;23.350;2023-07-31T05:26:18;51556.56;;;-146.31;84.07
2036;BME280;23642;42.658;23.350;2023-07-31T05:28:45;51628.75;;;-146.31;83.54
2036;BME280;23642;42.658;23.350;2023-07-31T05:31:12;51670.03;;;-146.31;82.95
2036;BME280;23642;42.658;23.350;2023-07-31T05:33:39;51672.09;;;-146.31;82.95
2036;BME280;23642;42.658;23.350;2023-07-31T05:36:06;51719.53;;;-146.31;82.49
2036;BME280;23642;42.658;23.350;2023-07-31T05:38:33;51711.28;;;-146.31;81.47
2036;BME280;23642;42.658;23.350;2023-07-31T05:41:02;51769.06;;;-146.31;82.72
2036;BME280;23642;42.658;23.350;2023-07-31T05:43:30;51843.34;;;-146.31;83.41
2036;BME280;23642;42.658;23.350;2023-07-31T05:45:57;51824.75;;;-146.31;84.30
2036;BME280;23642;42.658;23.350;2023-07-31T05:48:24;51851.59;;;-146.31;83.37
2036;BME280;23642;42.658;23.350;2023-07-31T05:50:51;51932.06;;;-146.31;82.57
2036;BME280;23642;42.658;23.350;2023-07-31T05:53:18;51948.56;;;-146.31;80.74
2036;BME280;23642;42.658;23.350;2023-07-31T05:55:45;52012.53;;;-146.31;80.15
2036;BME280;23642;42.658;23.350;2023-07-31T05:58:14;52074.44;;;-146.31;80.75
2036;BME280;23642;42.658;23.350;2023-07-31T06:00:42;52084.75;;;-146.31;80.42
2036;BME280;23642;42.658;23.350;2023-07-31T06:03:09;52057.91;;;-146.31;79.92
2036;BME280;23642;42.658;23.350;2023-07-31T06:05:36;52146.66;;;-146.31;79.17
2036;BME280;23642;42.658;23.350;2023-07-31T06:08:03;52173.47;;;-146.31;78.35
2036;BME280;23642;42.658;23.350;2023-07-31T06:10:30;52280.78;;;-146.31;77.09
2036;BME280;23642;42.658;23.350;2023-07-31T06:12:57;52392.19;;;-146.31;75.98
2036;BME280;23642;42.658;23.350;2023-07-31T06:15:27;52427.28;;;-146.31;75.15
2036;BME280;23642;42.658;23.350;2023-07-31T06:17:55;52505.69;;;-146.31;74.13
2036;BME280;23642;42.658;23.350;2023-07-31T06:20:23;52608.88;;;-146.31;72.85
2036;BME280;23642;42.658;23.350;2023-07-31T06:22:52;52660.47;;;-146.31;70.81
2036;BME280;23642;42.658;23.350;2023-07-31T06:25:21;52740.97;;;-146.31;69.60
2036;BME280;23642;42.658;23.350;2023-07-31T06:27:51;52871.00;;;-146.31;67.85
2036;BME280;23642;42.658;23.350;2023-07-31T06:30:19;52887.50;;;-146.31;67.91
2036;BME280;23642;42.658;23.350;2023-07-31T06:32:46;53005.16;;;-146.31;67.90
2036;BME280;23642;42.658;23.350;2023-07-31T06:35:14;53071.19;;;-146.31;69.08
2036;BME280;23642;42.658;23.350;2023-07-31T06:37:45;53044.34;;;-146.31;68.90
2036;BME280;23642;42.658;23.350;2023-07-31T06:40:14;53114.53;;;-146.31;70.14
2036;BME280;23642;42.658;23.350;2023-07-31T06:42:42;53081.50;;;-146.31;71.37
2036;BME280;23642;42.658;23.350;2023-07-31T06:45:10;53081.50;;;-146.31;71.28
2036;BME280;23642;42.658;23.350;2023-07-31T06:47:39;53108.34;;;-146.31;72.30
2036;BME280;23642;42.658;23.350;2023-07-31T06:50:11;53100.09;;;-146.31;72.63
2036;BME280;23642;42.658;23.350;2023-07-31T06:52:41;53102.16;;;-146.31;73.52
2036;BME280;23642;42.658;23.350;2023-07-31T06:55:17;53023.72;;;-146.31;71.92
2036;BME280;23642;42.658;23.350;2023-07-31T06:57:48;53052.63;;;-146.31;70.97
2036;BME280;23642;42.658;23.350;2023-07-31T07:00:19;53118.66;;;-146.31;72.29
2036;BME280;23642;42.658;23.350;2023-07-31T07:02:47;53120.72;;;-146.31;72.29
2036;BME280;23642;42.658;23.350;2023-07-31T07:05:14;53147.56;;;-146.31;72.51
2036;BME280;23642;42.658;23.350;2023-07-31T07:07:44;53221.88;;;-146.31;73.20
2036;BME280;23642;42.658;23.350;2023-07-31T07:10:12;53259.03;;;-146.31;72.60
2036;BME280;23642;42.658;23.350;2023-07-31T07:12:42;53259.03;;;-146.31;73.33
2036;BME280;23642;42.658;23.350;2023-07-31T07:15:09;53232.19;;;-146.31;72.88
2036;BME280;23642;42.658;23.350;2023-07-31T07:17:40;53147.56;;;-146.31;71.66
2036;BME280;23642;42.658;23.350;2023-07-31T07:20:11;53151.69;;;-146.31;70.02
2036;BME280;23642;42.658;23.350;2023-07-31T07:22:43;53320.94;;;-146.31;72.10
2036;BME280;23642;42.658;23.350;2023-07-31T07:25:18;53316.81;;;-146.31;72.01
2036;BME280;23642;42.658;23.350;2023-07-31T07:27:52;53316.81;;;-146.31;71.70
2036;BME280;23642;42.658;23.350;2023-07-31T07:30:21;53351.91;;;-146.31;70.57
2036;BME280;23642;42.658;23.350;2023-07-31T07:33:16;53337.47;;;-146.31;70.17
2036;BME280;23642;42.658;23.350;2023-07-31T07:36:00;53300.31;;;-146.31;69.13
2036;BME280;23642;42.658;23.350;2023-07-31T07:38:30;53302.38;;;-146.31;68.02
2036;BME280;23642;42.658;23.350;2023-07-31T07:41:00;53316.81;;;-146.31;68.71
2036;BME280;23642;42.658;23.350;2023-07-31T07:43:27;53226.00;;;-146.31;68.26
2036;BME280;23642;42.658;23.350;2023-07-31T07:45:54;53236.31;;;-146.31;67.26
2036;BME280;23642;42.658;23.350;2023-07-31T07:48:22;53296.16;;;-146.31;66.36
2036;BME280;23642;42.658;23.350;2023-07-31T07:51:03;53306.50;;;-146.31;66.48
2036;BME280;23642;42.658;23.350;2023-07-31T07:53:32;53238.38;;;-146.31;65.65
2036;BME280;23642;42.658;23.350;2023-07-31T07:56:03;53362.22;;;-146.31;65.86
2036;BME280;23642;42.658;23.350;2023-07-31T07:58:31;53407.63;;;-146.31;65.90
2036;BME280;23642;42.658;23.350;2023-07-31T08:01:01;53430.34;;;-146.31;66.71
2036;BME280;23642;42.658;23.350;2023-07-31T08:03:29;53502.59;;;-146.31;64.94
2036;BME280;23642;42.658;23.350;2023-07-31T08:05:58;53510.84;;;-146.31;64.68
2036;BME280;23642;42.658;23.350;2023-07-31T08:08:25;53502.59;;;-146.31;65.39
2036;BME280;23642;42.658;23.350;2023-07-31T08:10:59;53498.47;;;-146.31;65.10
2036;BME280;23642;42.658;23.350;2023-07-31T08:13:36;53564.53;;;-146.31;65.15
2036;BME280;23642;42.658;23.350;2023-07-31T08:16:04;53539.75;;;-146.31;65.58
2036;BME280;23642;42.658;23.350;2023-07-31T08:18:32;53494.34;;;-146.31;64.73
2036;BME280;23642;42.658;23.350;2023-07-31T08:20:59;53401.44;;;-146.31;63.53
2036;BME280;23642;42.658;23.350;2023-07-31T08:23:28;53490.22;;;-146.31;61.70
2036;BME280;23642;42.658;23.350;2023-07-31T08:25:57;53440.66;;;-146.31;62.00
2036;BME280;23642;42.658;23.350;2023-07-31T08:28:24;53523.22;;;-146.31;61.92
2036;BME280;23642;42.658;23.350;2023-07-31T08:30:52;53581.03;;;-146.31;62.85
2036;BME280;23642;42.658;23.350;2023-07-31T08:33:19;53562.47;;;-146.31;63.05
2036;BME280;23642;42.658;23.350;2023-07-31T08:35:53;53578.97;;;-146.31;62.23
2036;BME280;23642;42.658;23.350;2023-07-31T08:38:23;53715.22;;;-146.31;62.04
2036;BME280;23642;42.658;23.350;2023-07-31T08:40:57;53709.03;;;-146.31;62.05
2036;BME280;23642;42.658;23.350;2023-07-31T08:43:34;53717.28;;;-146.31;62.46
2036;BME280;23642;42.658;23.350;2023-07-31T08:46:05;53626.44;;;-146.31;61.85
2036;BME280;23642;42.658;23.350;2023-07-31T08:48:32;53642.97;;;-146.31;61.12
2036;BME280;23642;42.658;23.350;2023-07-31T08:53:49;53622.31;;;-146.31;56.79
2036;BME280;23642;42.658;23.350;2023-07-31T08:56:18;53725.53;;;-146.31;57.20
2036;BME280;23642;42.658;23.350;2023-07-31T08:58:59;53752.38;;;-146.31;57.64
2036;BME280;23642;42.658;23.350;2023-07-31T09:01:30;53820.50;;;-146.31;59.00
2036;BME280;23642;42.658;23.350;2023-07-31T09:04:04;53901.03;;;-146.31;60.78
2036;BME280;23642;42.658;23.350;2023-07-31T09:06:47;53915.47;;;-146.31;60.42
2036;BME280;23642;42.658;23.350;2023-07-31T09:09:23;53901.03;;;-146.31;60.10
2036;BME280;23642;42.658;23.350;2023-07-31T09:11:55;53898.94;;;-146.31;59.25
2036;BME280;23642;42.658;23.350;2023-07-31T09:14:29;53890.69;;;-146.31;58.87
2036;BME280;23642;42.658;23.350;2023-07-31T09:16:57;53927.84;;;-146.31;58.72
2036;BME280;23642;42.658;23.350;2023-07-31T09:19:31;53936.13;;;-146.31;57.63
2036;BME280;23642;42.658;23.350;2023-07-31T09:22:03;54010.44;;;-146.31;57.47
2036;BME280;23642;42.658;23.350;2023-07-31T09:24:32;53998.06;;;-146.31;56.63
2036;BME280;23642;42.658;23.350;2023-07-31T09:27:05;53969.16;;;-146.31;56.98
2036;BME280;23642;42.658;23.350;2023-07-31T09:29:32;53892.75;;;-146.31;56.00
2036;BME280;23642;42.658;23.350;2023-07-31T09:32:02;53919.59;;;-146.31;55.76
2036;BME280;23642;42.658;23.350;2023-07-31T09:34:31;53936.13;;;-146.31;54.62
2036;BME280;23642;42.658;23.350;2023-07-31T09:37:15;54070.31;;;-146.31;53.43
2036;BME280;23642;42.658;23.350;2023-07-31T09:39:47;54146.69;;;-146.31;54.37
2036;BME280;23642;42.658;23.350;2023-07-31T09:42:31;54208.63;;;-146.31;55.38
2036;BME280;23642;42.658;23.350;2023-07-31T09:45:07;54150.84;;;-146.31;54.57
2036;BME280;23642;42.658;23.350;2023-07-31T09:47:40;54113.66;;;-146.31;52.97
2036;BME280;23642;42.658;23.350;2023-07-31T09:50:14;54130.19;;;-146.31;51.45
2036;BME280;23642;42.658;23.350;2023-07-31T09:52:55;54278.84;;;-146.31;52.28
2036;BME280;23642;42.658;23.350;2023-07-31T09:55:29;54297.44;;;-146.31;51.63
2036;BME280;23642;42.658;23.350;2023-07-31T09:58:11;54278.84;;;-146.31;51.33
2036;BME280;23642;42.658;23.350;2023-07-31T10:01:00;54313.94;;;-146.31;49.56
2036;BME280;23642;42.658;23.350;2023-07-31T10:03:41;54307.75;;;-146.31;49.04
2036;BME280;23642;42.658;23.350;2023-07-31T10:06:12;54338.72;;;-146.31;49.57
2036;BME280;23642;42.658;23.350;2023-07-31T10:09:03;54386.22;;;-146.31;50.01
2036;BME280;23642;42.658;23.350;2023-07-31T10:11:55;54446.09;;;-146.31;49.58
2036;BME280;23642;42.658;23.350;2023-07-31T10:14:32;54487.38;;;-146.31;50.08
2036;BME280;23642;42.658;23.350;2023-07-31T10:17:01;54402.72;;;-146.31;50.71
2036;BME280;23642;42.658;23.350;2023-07-31T10:19:37;54536.94;;;-146.31;50.58
2036;BME280;23642;42.658;23.350;2023-07-31T10:22:08;54565.84;;;-146.31;49.86
2036;BME280;23642;42.658;23.350;2023-07-31T10:24:45;54569.97;;;-146.31;48.34
2036;BME280;23642;42.658;23.350;2023-07-31T10:27:12;54559.66;;;-146.31;48.38
2036;BME280;23642;42.658;23.350;2023-07-31T10:29:43;54623.66;;;-146.31;49.01
2036;BME280;23642;42.658;23.350;2023-07-31T10:34:57;54565.84;;;-146.31;46.96
2036;BME280;23642;42.658;23.350;2023-07-31T10:37:29;54617.47;;;-146.31;47.47
2036;BME280;23642;42.658;23.350;2023-07-31T10:40:00;54580.31;;;-146.31;47.60
2036;BME280;23642;42.658;23.350;2023-07-31T10:42:32;54536.94;;;-146.31;46.85
2036;BME280;23642;42.658;23.350;2023-07-31T10:45:03;54605.09;;;-146.31;46.35
2036;BME280;23642;42.658;23.350;2023-07-31T10:47:45;54526.63;;;-146.31;45.84
2036;BME280;23642;42.658;23.350;2023-07-31T10:50:21;54644.31;;;-146.31;45.96
2036;BME280;23642;42.658;23.350;2023-07-31T10:52:50;54640.19;;;-146.31;45.74
2036;BME280;23642;42.658;23.350;2023-07-31T10:55:38;54642.25;;;-146.31;44.46
2036;BME280;23642;42.658;23.350;2023-07-31T10:58:21;54625.75;;;-146.31;43.61
2036;BME280;23642;42.658;23.350;2023-07-31T11:00:56;54644.31;;;-146.31;44.67
2036;BME280;23642;42.658;23.350;2023-07-31T11:03:41;54658.78;;;-146.31;44.28
2036;BME280;23642;42.658;23.350;2023-07-31T11:06:09;54681.50;;;-146.31;44.94
2036;BME280;23642;42.658;23.350;2023-07-31T11:08:42;54681.50;;;-146.31;45.41
2036;BME280;23642;42.658;23.350;2023-07-31T11:11:13;54728.97;;;-146.31;44.13
2036;BME280;23642;42.658;23.350;2023-07-31T11:13:42;54762.03;;;-146.31;43.36
2036;BME280;23642;42.658;23.350;2023-07-31T11:16:19;54793.00;;;-146.31;43.28
2036;BME280;23642;42.658;23.350;2023-07-31T11:18:47;54852.88;;;-146.31;43.95
2036;BME280;23642;42.658;23.350;2023-07-31T11:21:25;54807.47;;;-146.31;42.51
2036;BME280;23642;42.658;23.350;2023-07-31T11:23:53;54883.88;;;-146.31;43.30
2036;BME280;23642;42.658;23.350;2023-07-31T11:26:25;54867.34;;;-146.31;42.64
2036;BME280;23642;42.658;23.350;2023-07-31T11:28:53;54894.19;;;-146.31;42.89
2036;BME280;23642;42.658;23.350;2023-07-31T11:31:21;54852.88;;;-146.31;43.21
2036;BME280;23642;42.658;23.350;2023-07-31T11:34:04;54844.63;;;-146.31;42.51
2036;BME280;23642;42.658;23.350;2023-07-31T11:36:32;54797.13;;;-146.31;41.94
2036;BME280;23642;42.658;23.350;2023-07-31T11:39:05;54712.47;;;-146.31;41.41
2036;BME280;23642;42.658;23.350;2023-07-31T11:41:32;54770.28;;;-146.31;40.62
2036;BME280;23642;42.658;23.350;2023-07-31T11:44:00;54902.44;;;-146.31;41.76
2036;BME280;23642;42.658;23.350;2023-07-31T11:46:34;54912.78;;;-146.31;42.82
2036;BME280;23642;42.658;23.350;2023-07-31T11:49:04;54840.50;;;-146.31;43.01
2036;BME280;23642;42.658;23.350;2023-07-31T11:51:32;54803.31;;;-146.31;43.29
2036;BME280;23642;42.658;23.350;2023-07-31T11:54:02;54799.19;;;-146.31;42.84
2036;BME280;23642;42.658;23.350;2023-07-31T11:56:32;54823.97;;;-146.31;42.76
2036;BME280;23642;42.658;23.350;2023-07-31T11:59:02;54869.41;;;-146.31;42.51
2036;BME280;23642;42.658;23.350;2023-07-31T12:01:38;54817.78;;;-146.31;42.71
2036;BME280;23642;42.658;23.350;2023-07-31T12:04:09;54865.28;;;-146.31;42.21
2036;BME280;23642;42.658;23.350;2023-07-31T12:06:42;54799.19;;;-146.31;41.88
2036;BME280;23642;42.658;23.350;2023-07-31T12:09:24;54857.03;;;-146.31;41.20
2036;BME280;23642;42.658;23.350;2023-07-31T12:11:52;54852.88;;;-146.31;41.14
2036;BME280;23642;42.658;23.350;2023-07-31T12:14:24;54836.38;;;-146.31;39.96
2036;BME280;23642;42.658;23.350;2023-07-31T12:16:59;54749.63;;;-146.31;40.34
2036;BME280;23642;42.658;23.350;2023-07-31T12:19:48;54795.06;;;-146.31;40.28
2036;BME280;23642;42.658;23.350;2023-07-31T12:22:18;54805.38;;;-146.31;39.42
2036;BME280;23642;42.658;23.350;2023-07-31T12:24:47;54710.41;;;-146.31;39.53
2036;BME280;23642;42.658;23.350;2023-07-31T12:27:40;54646.38;;;-146.31;38.59
2036;BME280;23642;42.658;23.350;2023-07-31T12:30:28;54741.38;;;-146.31;41.32
2036;BME280;23642;42.658;23.350;2023-07-31T12:33:30;54830.16;;;-146.31;41.85
2036;BME280;23642;42.658;23.350;2023-07-31T12:36:12;54799.19;;;-146.31;41.90
2036;BME280;23642;42.658;23.350;2023-07-31T12:38:49;54850.81;;;-146.31;41.26
2036;BME280;23642;42.658;23.350;2023-07-31T12:41:27;54830.16;;;-146.31;40.41
2036;BME280;23642;42.658;23.350;2023-07-31T12:43:58;54811.59;;;-146.31;39.04
2036;BME280;23642;42.658;23.350;2023-07-31T12:46:35;54881.78;;;-146.31;39.12
2036;BME280;23642;42.658;23.350;2023-07-31T12:49:05;54826.03;;;-146.31;39.00
2036;BME280;23642;42.658;23.350;2023-07-31T12:51:45;54861.16;;;-146.31;38.59
2036;BME280;23642;42.658;23.350;2023-07-31T12:54:29;54910.72;;;-146.31;39.14
2036;BME280;23642;42.658;23.350;2023-07-31T13:00:25;54923.09;;;-146.31;39.14
2036;BME280;23642;42.658;23.350;2023-07-31T13:03:32;54894.19;;;-146.31;39.59
2036;BME280;23642;42.658;23.350;2023-07-31T13:09:43;54778.53;;;-146.31;36.94